createdAt,value
2023-05-10T00:02:37.202Z,98894.91
2023-05-10T00:07:39.052Z,98895.63
2023-05-10T00:12:40.811Z,98886.03
2023-05-10T00:17:42.565Z,98882.56
2023-05-10T00:22:44.343Z,98873.78
2023-05-10T00:27:46.032Z,98868.69
2023-05-10T00:32:49.215Z,98861.81
2023-05-10T00:37:51.106Z,98852.84
2023-05-10T00:42:53.359Z,98843.84
2023-05-10T00:47:57.007Z,98839.34
2023-05-10T00:53:00.708Z,98843.53
2023-05-10T00:58:02.892Z,98841.69
2023-05-10T01:03:04.718Z,98837.00
2023-05-10T01:08:09.666Z,98836.47
2023-05-10T01:13:12.460Z,98829.94
2023-05-10T01:18:14.607Z,98818.19
2023-05-10T01:23:19.085Z,98821.28
2023-05-10T01:28:24.106Z,98821.34
2023-05-10T01:33:31.248Z,98814.09
2023-05-10T01:38:42.050Z,98807.88
2023-05-10T01:44:07.782Z,98806.56
2023-05-10T01:49:17.005Z,98801.63
2023-05-10T01:54:21.132Z,98792.88
2023-05-10T01:59:26.799Z,98795.72
2023-05-10T02:04:30.081Z,98796.84
2023-05-10T02:09:34.720Z,98785.38
2023-05-10T02:14:38.085Z,98787.63
2023-05-10T02:19:42.824Z,98789.25
2023-05-10T02:24:46.227Z,98782.44
2023-05-10T02:29:49.396Z,98776.72
2023-05-10T02:34:53.057Z,98781.44
2023-05-10T02:39:56.302Z,98777.06
2023-05-10T02:45:02.375Z,98783.16
2023-05-10T02:50:04.491Z,98779.19
2023-05-10T02:55:12.743Z,98781.13
2023-05-10T03:00:15.191Z,98778.94
2023-05-10T03:05:17.202Z,98774.06
2023-05-10T03:10:19.848Z,98773.22
2023-05-10T03:15:28.184Z,98778.44
2023-05-10T03:20:36.335Z,98777.09
2023-05-10T03:25:39.473Z,98775.97
2023-05-10T03:30:44.525Z,98791.06
2023-05-10T03:35:47.998Z,98787.44
2023-05-10T03:40:51.150Z,98787.34
2023-05-10T03:45:53.118Z,98787.22
2023-05-10T03:50:54.921Z,98791.69
2023-05-10T03:55:56.728Z,98799.50
2023-05-10T04:00:59.873Z,98800.59
2023-05-10T04:06:02.988Z,98814.00
2023-05-10T04:11:09.446Z,98807.69
2023-05-10T04:16:11.175Z,98809.50
2023-05-10T04:21:14.536Z,98805.88
2023-05-10T04:26:16.293Z,98815.38
2023-05-10T04:31:18.324Z,98820.94
2023-05-10T04:36:20.126Z,98823.66
2023-05-10T04:41:21.889Z,98824.47
2023-05-10T04:46:23.715Z,98827.28
2023-05-10T04:51:25.519Z,98830.94
2023-05-10T04:56:27.251Z,98829.28
2023-05-10T05:01:29.137Z,98837.16
2023-05-10T05:06:30.987Z,98836.88
2023-05-10T05:11:32.744Z,98841.28
2023-05-10T05:16:34.538Z,98841.63
2023-05-10T05:21:36.769Z,98849.72
2023-05-10T05:26:38.643Z,98846.31
2023-05-10T05:31:40.498Z,98847.47
2023-05-10T05:36:42.394Z,98839.47
2023-05-10T05:41:44.572Z,98837.41
2023-05-10T05:46:46.309Z,98839.69
2023-05-10T05:51:50.081Z,98839.16
2023-05-10T05:56:51.853Z,98842.63
2023-05-10T06:01:54.001Z,98847.59
2023-05-10T06:06:58.316Z,98843.94
2023-05-10T06:12:00.206Z,98850.47
2023-05-10T06:17:02.025Z,98833.44
2023-05-10T06:22:04.040Z,98840.78
2023-05-10T06:27:06.738Z,98837.91
2023-05-10T06:32:08.493Z,98829.72
2023-05-10T06:37:10.230Z,98833.75
2023-05-10T06:42:11.930Z,98836.66
2023-05-10T06:47:13.626Z,98836.38
2023-05-10T06:52:15.354Z,98836.81
2023-05-10T06:57:30.408Z,98834.06
2023-05-10T07:02:32.886Z,98839.03
2023-05-10T07:07:34.615Z,98834.53
2023-05-10T07:12:36.525Z,98835.09
2023-05-10T07:17:38.381Z,98834.84
2023-05-10T07:22:40.145Z,98831.09
2023-05-10T07:27:41.893Z,98830.00
2023-05-10T07:32:43.716Z,98828.09
2023-05-10T07:37:45.614Z,98827.41
2023-05-10T07:42:47.377Z,98831.53
2023-05-10T07:47:49.173Z,98835.84
2023-05-10T07:52:51.045Z,98832.75
2023-05-10T07:57:52.801Z,98834.06
2023-05-10T08:02:54.634Z,98840.44
2023-05-10T08:07:56.519Z,98833.88
2023-05-10T08:12:59.500Z,98842.81
2023-05-10T08:18:01.307Z,98838.72
2023-05-10T08:23:03.139Z,98843.06
2023-05-10T08:28:05.053Z,98843.69
2023-05-10T08:33:06.904Z,98832.97
2023-05-10T08:38:09.057Z,98835.75
2023-05-10T08:43:13.034Z,98836.09
2023-05-10T08:48:15.770Z,98834.19
2023-05-10T08:53:17.637Z,98826.41
2023-05-10T08:58:20.580Z,98826.63
2023-05-10T09:03:22.298Z,98828.41
2023-05-10T09:08:28.478Z,98815.88
2023-05-10T09:13:30.998Z,98818.53
2023-05-10T09:18:32.881Z,98821.59
2023-05-10T09:23:34.707Z,98815.41
2023-05-10T09:28:56.490Z,98817.44
2023-05-10T09:33:58.281Z,98816.19
2023-05-10T09:39:01.151Z,98810.72
2023-05-10T09:44:02.872Z,98816.81
2023-05-10T09:49:06.648Z,98803.63
2023-05-10T09:54:13.166Z,98813.91
2023-05-10T09:59:15.030Z,98816.81
2023-05-10T10:04:17.250Z,98817.56
2023-05-10T10:09:19.714Z,98808.50
2023-05-10T10:14:23.758Z,98820.50
2023-05-10T10:19:25.879Z,98819.97
2023-05-10T10:24:27.676Z,98820.88
2023-05-10T10:29:45.532Z,98820.16
2023-05-10T10:34:48.018Z,98802.25
2023-05-10T10:39:51.451Z,98805.22
2023-05-10T10:45:13.462Z,98797.31
2023-05-10T10:50:17.285Z,98801.72
2023-05-10T10:55:24.251Z,98811.56
2023-05-10T11:00:33.983Z,98809.91
2023-05-10T11:05:36.534Z,98797.81
2023-05-10T11:10:39.437Z,98803.69
2023-05-10T11:15:49.631Z,98796.44
2023-05-10T11:20:53.125Z,98797.88
2023-05-10T11:25:55.504Z,98794.94
2023-05-10T11:30:58.118Z,98786.13
2023-05-10T11:36:00.014Z,98798.53
2023-05-10T11:41:01.776Z,98801.72
2023-05-10T11:46:03.914Z,98793.38
2023-05-10T11:51:05.936Z,98789.91
2023-05-10T11:56:09.980Z,98795.00
2023-05-10T12:01:12.034Z,98783.00
2023-05-10T12:06:14.083Z,98793.38
2023-05-10T12:11:18.770Z,98788.78
2023-05-10T12:16:25.916Z,98791.63
2023-05-10T12:21:30.111Z,98780.41
2023-05-10T12:26:32.443Z,98786.44
2023-05-10T12:31:34.248Z,98782.03
2023-05-10T12:36:39.626Z,98788.84
2023-05-10T12:41:43.540Z,98787.78
2023-05-10T12:46:45.694Z,98770.59
2023-05-10T12:51:47.478Z,98773.00
2023-05-10T12:56:49.211Z,98768.31
2023-05-10T13:01:51.061Z,98764.63
2023-05-10T13:06:52.974Z,98761.38
2023-05-10T13:11:55.289Z,98770.34
2023-05-10T13:16:57.196Z,98750.63
2023-05-10T13:21:59.145Z,98758.66
2023-05-10T13:27:00.944Z,98756.66
2023-05-10T13:32:03.076Z,98749.81
2023-05-10T13:37:04.790Z,98740.56
2023-05-10T13:42:06.544Z,98752.59
2023-05-10T13:47:08.299Z,98752.59
2023-05-10T13:52:11.138Z,98744.19
2023-05-10T13:57:14.900Z,98744.78
2023-05-10T14:02:16.786Z,98733.72
2023-05-10T14:07:18.942Z,98742.13
2023-05-10T14:12:20.670Z,98741.94
2023-05-10T14:17:23.303Z,98740.88
2023-05-10T14:22:25.041Z,98737.69
2023-05-10T14:27:27.066Z,98745.16
2023-05-10T14:32:29.517Z,98737.47
2023-05-10T14:37:31.331Z,98729.50
2023-05-10T14:42:33.115Z,98727.13
2023-05-10T14:47:34.892Z,98733.66
2023-05-10T14:52:37.473Z,98721.03
2023-05-10T14:57:39.263Z,98735.69
2023-05-10T15:02:41.233Z,98737.59
2023-05-10T15:07:44.840Z,98737.50
2023-05-10T15:12:46.822Z,98740.22
2023-05-10T15:17:49.200Z,98736.19
2023-05-10T15:22:51.223Z,98735.28
2023-05-10T15:27:52.939Z,98744.31
2023-05-10T15:32:54.806Z,98742.03
2023-05-10T15:37:56.579Z,98736.59
2023-05-10T15:42:58.356Z,98746.66
2023-05-10T15:48:00.494Z,98746.69
2023-05-10T15:53:02.426Z,98746.00
2023-05-10T15:58:04.283Z,98742.94
2023-05-10T16:03:06.843Z,98745.41
2023-05-10T16:08:08.613Z,98742.09
2023-05-10T16:13:10.615Z,98745.66
2023-05-10T16:18:12.638Z,98746.56
2023-05-10T16:23:15.213Z,98747.28
2023-05-10T16:28:17.221Z,98747.81
2023-05-10T16:33:19.001Z,98749.41
2023-05-10T16:38:21.794Z,98752.09
2023-05-10T16:43:25.839Z,98747.09
2023-05-10T16:48:27.985Z,98750.31
2023-05-10T16:53:29.712Z,98761.66
2023-05-10T16:58:31.490Z,98761.66
2023-05-10T17:03:33.709Z,98756.28
2023-05-10T17:08:35.749Z,98765.47
2023-05-10T17:13:38.868Z,98764.44
2023-05-10T17:18:41.848Z,98770.53
2023-05-10T17:23:43.625Z,98771.22
2023-05-10T17:28:45.525Z,98783.56
2023-05-10T17:33:47.385Z,98777.06
2023-05-10T17:38:49.581Z,98786.91
2023-05-10T17:43:51.395Z,98789.47
2023-05-10T17:48:53.075Z,98789.59
2023-05-10T17:53:55.081Z,98792.28
2023-05-10T17:58:56.977Z,98790.50
2023-05-10T18:03:58.684Z,98803.38
2023-05-10T18:09:00.763Z,98802.66
2023-05-10T18:14:02.611Z,98810.22
2023-05-10T18:19:04.465Z,98818.31
2023-05-10T18:24:06.461Z,98823.63
2023-05-10T18:29:08.442Z,98827.75
2023-05-10T18:34:10.379Z,98831.53
2023-05-10T18:39:13.190Z,98837.69
2023-05-10T18:44:14.953Z,98846.25
2023-05-10T18:49:16.882Z,98851.47
2023-05-10T18:54:18.690Z,98848.00
2023-05-10T18:59:20.474Z,98859.78
2023-05-10T19:04:22.277Z,98862.81
2023-05-10T19:09:24.260Z,98861.75
2023-05-10T19:14:26.262Z,98867.59
2023-05-10T19:19:28.493Z,98874.13
2023-05-10T19:24:30.302Z,98873.19
2023-05-10T19:29:32.328Z,98868.66
2023-05-10T19:34:34.146Z,98871.59
2023-05-10T19:39:35.959Z,98877.03
2023-05-10T19:44:37.896Z,98870.19
2023-05-10T19:49:39.675Z,98873.19
2023-05-10T19:54:41.689Z,98866.25
2023-05-10T19:59:43.419Z,98867.28
2023-05-10T20:04:45.250Z,98877.53
2023-05-10T20:09:47.205Z,98877.75
2023-05-10T20:14:48.915Z,98885.41
2023-05-10T20:19:50.733Z,98888.53
2023-05-10T20:24:54.424Z,98886.44
2023-05-10T20:29:57.791Z,98888.59
2023-05-10T20:34:59.615Z,98889.16
2023-05-10T20:40:01.395Z,98881.03
2023-05-10T20:45:03.442Z,98896.44
2023-05-10T20:50:05.822Z,98889.03
2023-05-10T20:55:07.914Z,98889.38
2023-05-10T21:00:10.383Z,98884.84
2023-05-10T21:05:12.232Z,98889.47
2023-05-10T21:10:14.055Z,98879.34
2023-05-10T21:15:15.842Z,98877.59
2023-05-10T21:20:17.775Z,98874.94
2023-05-10T21:25:19.678Z,98873.28
2023-05-10T21:30:21.428Z,98880.00
2023-05-10T21:35:23.288Z,98867.25
2023-05-10T21:40:25.012Z,98888.25
2023-05-10T21:45:27.300Z,98878.13
2023-05-10T21:50:29.101Z,98876.84
2023-05-10T21:55:31.150Z,98877.84
2023-05-10T22:00:34.212Z,98871.38
2023-05-10T22:05:36.194Z,98884.34
2023-05-10T22:10:37.920Z,98882.22
2023-05-10T22:15:39.781Z,98888.47
2023-05-10T22:20:44.233Z,98885.91
2023-05-10T22:25:45.998Z,98892.47
2023-05-10T22:30:48.451Z,98885.50
2023-05-10T22:35:50.222Z,98882.94
2023-05-10T22:40:52.215Z,98891.94
2023-05-10T22:45:54.437Z,98883.78
2023-05-10T22:50:56.296Z,98883.66
2023-05-10T22:55:58.286Z,98882.19
2023-05-10T23:01:00.108Z,98882.41
2023-05-10T23:06:01.897Z,98892.78
2023-05-10T23:11:03.768Z,98893.28
2023-05-10T23:16:08.274Z,98899.53
2023-05-10T23:21:10.298Z,98892.19
2023-05-10T23:26:12.572Z,98894.50
2023-05-10T23:31:14.740Z,98886.84
2023-05-10T23:36:16.517Z,98887.03
2023-05-10T23:41:18.248Z,98886.22
2023-05-10T23:46:20.126Z,98891.50
2023-05-10T23:51:22.122Z,98889.22
2023-05-10T23:56:23.878Z,98887.97
